Terminal Aerodrome Forecast
Issued by NWS

Home | Current Version | Previous Version | Text Only | Print | Product List | Glossary Off
Versions: 1 2 3 4 5 6 7 8 9 10 11 12 13 14 15 16 17

000
FTUS43 KICT 150941 AAA
TAFSLN
TAF AMD
KSLN 150941Z 1510/1606 06005KT P6SM OVC015
     FM151130 07005KT 6SM -FZRA SCT006 OVC008
      TEMPO 1512/1516 3SM FZRA OVC006
     FM151900 07005KT 6SM -RA SCT006 OVC008=

USA.gov is the U.S. government's official web portal to all federal, state and local government web resources and services.